York, PA

4:22 PM EDT on September 19, 2014 (GMT -0400)
York | Change Station
CLOSE
Current Station
Airport
Location: York,
Elevation: 479 ft
Nearby Weather Stations

Elev 479 ft 39.92 °N, 76.87 °W | Updated 29 minutes ago

Overcast
Overcast
69 °F
Feels Like 69 °F
N
8
Wind Variable Wind from East

Today
High -- | Low -- °F
--% Chance of Precip.
Yesterday
High -- | Low -- °F
Precip. -- in
6:51 AM 7:09 PM
Waning Crescent, 17% visible
Pressure 30.28 in
Visibility 10.0 miles
Clouds Few 4400 ft
Overcast 6000 ft
Dew Point 53 °F
Humidity 57%
Rainfall 0.00 in
Snow Depth Not available.
UV 1 out of 12
Pollen 4.60 out of 12
Ozone Good
PM2.5 Moderate
Flu Activity Not available.
METAR KTHV 191953Z AUTO 10007KT 10SM FEW044 OVC060 21/12 A3027 RMK AO2 SLP252 T02060117

More Conditions Fewer Conditions

Pressure 30.28 in
Visibility 10.0 miles
Clouds Few 4400 ft
Overcast 6000 ft
Dew Point 53 °F
Humidity 57%
Rainfall 0.00 in
Snow Depth Not available.
UV 1 out of 12
Pollen 4.60 out of 12
Ozone Good
PM2.5 Moderate
Flu Activity Not available.
METAR KTHV 191953Z AUTO 10007KT 10SM FEW044 OVC060 21/12 A3027 RMK AO2 SLP252 T02060117

More Conditions Fewer Conditions

10-Day Weather Forecast

Almanac

Astronomy

Sep. 19, 2014 Rise Set
Actual Time 6:51 AM EDT 7:09 PM EDT
Civil Twilight 6:24 AM EDT 7:36 PM EDT
Nautical Twilight 5:53 AM EDT 8:08 PM EDT
Astronomical Twilight 5:20 AM EDT 8:40 PM EDT
Moon 2:35 AM EDT 4:36 PM EDT
Length of Visible Light 13h 11m
Length of Day
12h 17m
Tomorrow will be 2m 36s shorter.
Waning Crescent, 17% of the Moon is Illuminated
Today
Waning Crescent
Sep 24
New
Oct 1
First Quarter
Oct 8
Full
Oct 15
Last Quarter

Today's Extremes

State Highs State Lows

Community

WunderPhotos

Upload Photos

1,754,693 photos uploaded!

WunderBlogs® & News

By Dr. Jeff Masters
Director of Meteorology, Weather Underground
By Kari Strenfel
Meteorologist, Weather Underground
By Christopher C. Burt
Weather Historian, Weather Underground
September 19, 2014
September 19, 2014
September 19, 2014

Nearby

Air Quality

  Air Quality AQ Index Pollutant
Yesterday Moderate
PM2.5
Yesterday Good
OZONE
Current Moderate
PM2.5
Current Good
OZONE
Friday Moderate
PM2.5
Saturday Moderate
PM2.5
Sunday Moderate
PM2.5
Monday Good
PM2.5
Tuesday Good
PM2.5

Snow Depth

Station Depth Elevation
No new snow has been reported.

Earthquake Activity

City Distance Mag. Time & Date
No recent earthquake activity has been reported nearby.
Minimum magnitude displayed is 2.5.

Coastal Water Temperatures

Place Temperature
No Stations Reporting

Nearby Weather Stations